sensor_id;sensor_type;location;lat;lon;timestamp;P1;durP1;ratioP1;P2;durP2;ratioP2
23590;SDS011;11973;52.098;7.582;2023-10-08T04:31:50;0.43;;;0.40;;
23590;SDS011;11973;52.098;7.582;2023-10-08T04:34:27;0.65;;;0.40;;
23590;SDS011;11973;52.098;7.582;2023-10-08T04:36:58;0.45;;;0.45;;
23590;SDS011;11973;52.098;7.582;2023-10-08T04:39:29;0.50;;;0.50;;
23590;SDS011;11973;52.098;7.582;2023-10-08T04:41:58;0.45;;;0.40;;
23590;SDS011;11973;52.098;7.582;2023-10-08T04:44:30;0.50;;;0.50;;
23590;SDS011;11973;52.098;7.582;2023-10-08T04:46:57;0.60;;;0.60;;
23590;SDS011;11973;52.098;7.582;2023-10-08T04:49:29;0.60;;;0.60;;
23590;SDS011;11973;52.098;7.582;2023-10-08T04:52:04;0.50;;;0.50;;
23590;SDS011;11973;52.098;7.582;2023-10-08T04:54:44;0.95;;;0.60;;
23590;SDS011;11973;52.098;7.582;2023-10-08T04:57:20;2.17;;;0.60;;
23590;SDS011;11973;52.098;7.582;2023-10-08T04:59:51;0.68;;;0.68;;
23590;SDS011;11973;52.098;7.582;2023-10-08T05:02:17;0.70;;;0.70;;
23590;SDS011;11973;52.098;7.582;2023-10-08T05:04:59;0.60;;;0.60;;
23590;SDS011;11973;52.098;7.582;2023-10-08T05:07:37;0.90;;;0.90;;
23590;SDS011;11973;52.098;7.582;2023-10-08T05:10:12;0.63;;;0.63;;
23590;SDS011;11973;52.098;7.582;2023-10-08T05:12:48;0.70;;;0.70;;
23590;SDS011;11973;52.098;7.582;2023-10-08T05:15:29;0.90;;;0.90;;
23590;SDS011;11973;52.098;7.582;2023-10-08T05:18:04;0.68;;;0.68;;
23590;SDS011;11973;52.098;7.582;2023-10-08T05:20:48;1.45;;;0.88;;
23590;SDS011;11973;52.098;7.582;2023-10-08T05:23:14;0.60;;;0.60;;
23590;SDS011;11973;52.098;7.582;2023-10-08T05:25:53;1.38;;;1.10;;
23590;SDS011;11973;52.098;7.582;2023-10-08T05:31:12;1.05;;;1.05;;
23590;SDS011;11973;52.098;7.582;2023-10-08T05:33:42;1.10;;;1.10;;
23590;SDS011;11973;52.098;7.582;2023-10-08T05:36:27;1.25;;;1.25;;
23590;SDS011;11973;52.098;7.582;2023-10-08T05:38:59;0.90;;;0.90;;
23590;SDS011;11973;52.098;7.582;2023-10-08T05:41:44;1.00;;;1.00;;
23590;SDS011;11973;52.098;7.582;2023-10-08T05:44:40;1.13;;;1.13;;
23590;SDS011;11973;52.098;7.582;2023-10-08T05:47:14;1.38;;;1.30;;
23590;SDS011;11973;52.098;7.582;2023-10-08T05:50:01;1.30;;;1.30;;
23590;SDS011;11973;52.098;7.582;2023-10-08T05:52:37;1.48;;;1.48;;
23590;SDS011;11973;52.098;7.582;2023-10-08T05:55:16;1.60;;;1.60;;
23590;SDS011;11973;52.098;7.582;2023-10-08T05:58:02;1.90;;;1.80;;
23590;SDS011;11973;52.098;7.582;2023-10-08T06:00:45;2.00;;;2.00;;
23590;SDS011;11973;52.098;7.582;2023-10-08T06:03:19;1.60;;;1.60;;
23590;SDS011;11973;52.098;7.582;2023-10-08T06:06:07;1.98;;;1.88;;
23590;SDS011;11973;52.098;7.582;2023-10-08T06:08:36;1.92;;;1.92;;
23590;SDS011;11973;52.098;7.582;2023-10-08T06:11:33;2.15;;;2.15;;
23590;SDS011;11973;52.098;7.582;2023-10-08T06:14:31;2.20;;;2.20;;
23590;SDS011;11973;52.098;7.582;2023-10-08T06:17:15;2.70;;;2.60;;
23590;SDS011;11973;52.098;7.582;2023-10-08T06:20:10;3.80;;;2.45;;
23590;SDS011;11973;52.098;7.582;2023-10-08T06:22:42;2.60;;;2.50;;
23590;SDS011;11973;52.098;7.582;2023-10-08T06:25:09;2.70;;;2.70;;
23590;SDS011;11973;52.098;7.582;2023-10-08T06:27:42;2.78;;;2.55;;
23590;SDS011;11973;52.098;7.582;2023-10-08T06:30:11;2.72;;;2.72;;
23590;SDS011;11973;52.098;7.582;2023-10-08T06:32:42;2.83;;;2.70;;
23590;SDS011;11973;52.098;7.582;2023-10-08T06:35:09;3.25;;;3.00;;
23590;SDS011;11973;52.098;7.582;2023-10-08T06:37:45;2.85;;;2.72;;
23590;SDS011;11973;52.098;7.582;2023-10-08T06:40:15;3.00;;;3.00;;
23590;SDS011;11973;52.098;7.582;2023-10-08T06:42:59;2.83;;;2.83;;
23590;SDS011;11973;52.098;7.582;2023-10-08T06:45:36;2.97;;;2.97;;
23590;SDS011;11973;52.098;7.582;2023-10-08T06:48:03;3.60;;;3.60;;
23590;SDS011;11973;52.098;7.582;2023-10-08T06:50:32;4.57;;;3.33;;
23590;SDS011;11973;52.098;7.582;2023-10-08T06:53:04;2.92;;;2.88;;
23590;SDS011;11973;52.098;7.582;2023-10-08T06:55:36;3.22;;;3.13;;
23590;SDS011;11973;52.098;7.582;2023-10-08T06:58:03;2.88;;;2.72;;
23590;SDS011;11973;52.098;7.582;2023-10-08T07:00:34;3.05;;;2.95;;
23590;SDS011;11973;52.098;7.582;2023-10-08T07:03:03;3.40;;;3.30;;
23590;SDS011;11973;52.098;7.582;2023-10-08T07:05:29;2.83;;;2.83;;
23590;SDS011;11973;52.098;7.582;2023-10-08T07:08:01;3.08;;;3.00;;
23590;SDS011;11973;52.098;7.582;2023-10-08T07:10:32;3.40;;;3.30;;
23590;SDS011;11973;52.098;7.582;2023-10-08T07:12:59;3.55;;;3.50;;
23590;SDS011;11973;52.098;7.582;2023-10-08T07:15:28;3.53;;;3.53;;
23590;SDS011;11973;52.098;7.582;2023-10-08T07:17:55;3.65;;;3.65;;
23590;SDS011;11973;52.098;7.582;2023-10-08T07:20:22;3.13;;;3.13;;
23590;SDS011;11973;52.098;7.582;2023-10-08T07:22:48;3.55;;;3.50;;
23590;SDS011;11973;52.098;7.582;2023-10-08T07:25:22;3.67;;;3.67;;
23590;SDS011;11973;52.098;7.582;2023-10-08T07:27:48;3.95;;;3.85;;
23590;SDS011;11973;52.098;7.582;2023-10-08T07:30:14;4.18;;;4.18;;
23590;SDS011;11973;52.098;7.582;2023-10-08T07:32:52;4.28;;;4.18;;
23590;SDS011;11973;52.098;7.582;2023-10-08T07:35:19;4.35;;;4.25;;
23590;SDS011;11973;52.098;7.582;2023-10-08T07:37:45;4.47;;;4.38;;
23590;SDS011;11973;52.098;7.582;2023-10-08T07:40:15;4.38;;;4.18;;
23590;SDS011;11973;52.098;7.582;2023-10-08T07:42:40;4.10;;;3.90;;
23590;SDS011;11973;52.098;7.582;2023-10-08T07:45:06;4.60;;;4.40;;
23590;SDS011;11973;52.098;7.582;2023-10-08T07:47:32;4.63;;;4.40;;
23590;SDS011;11973;52.098;7.582;2023-10-08T07:49:58;4.03;;;3.92;;
23590;SDS011;11973;52.098;7.582;2023-10-08T07:52:24;4.50;;;4.30;;
23590;SDS011;11973;52.098;7.582;2023-10-08T07:54:50;4.18;;;4.07;;
23590;SDS011;11973;52.098;7.582;2023-10-08T07:57:16;4.22;;;4.13;;
23590;SDS011;11973;52.098;7.582;2023-10-08T07:59:51;4.63;;;4.43;;
23590;SDS011;11973;52.098;7.582;2023-10-08T08:02:19;4.65;;;4.57;;
23590;SDS011;11973;52.098;7.582;2023-10-08T08:04:52;4.35;;;4.15;;
23590;SDS011;11973;52.098;7.582;2023-10-08T08:07:21;4.63;;;4.53;;
23590;SDS011;11973;52.098;7.582;2023-10-08T08:09:49;4.35;;;4.25;;
23590;SDS011;11973;52.098;7.582;2023-10-08T08:12:17;4.00;;;3.90;;
23590;SDS011;11973;52.098;7.582;2023-10-08T08:14:44;4.50;;;4.40;;
23590;SDS011;11973;52.098;7.582;2023-10-08T08:17:10;4.20;;;4.10;;
23590;SDS011;11973;52.098;7.582;2023-10-08T08:19:39;3.90;;;3.70;;
23590;SDS011;11973;52.098;7.582;2023-10-08T08:22:17;4.45;;;4.25;;
23590;SDS011;11973;52.098;7.582;2023-10-08T08:24:47;3.60;;;3.50;;
23590;SDS011;11973;52.098;7.582;2023-10-08T08:27:21;3.25;;;3.15;;
23590;SDS011;11973;52.098;7.582;2023-10-08T08:29:50;4.13;;;3.92;;
23590;SDS011;11973;52.098;7.582;2023-10-08T08:32:20;3.60;;;3.60;;
23590;SDS011;11973;52.098;7.582;2023-10-08T08:34:47;4.22;;;4.13;;
23590;SDS011;11973;52.098;7.582;2023-10-08T08:37:18;3.92;;;3.60;;
23590;SDS011;11973;52.098;7.582;2023-10-08T08:39:52;3.45;;;3.35;;
23590;SDS011;11973;52.098;7.582;2023-10-08T08:42:19;2.78;;;2.67;;
23590;SDS011;11973;52.098;7.582;2023-10-08T08:44:48;3.20;;;3.15;;
23590;SDS011;11973;52.098;7.582;2023-10-08T08:47:17;3.28;;;3.17;;
23590;SDS011;11973;52.098;7.582;2023-10-08T08:49:43;6.43;;;5.82;;
23590;SDS011;11973;52.098;7.582;2023-10-08T08:52:10;7.28;;;5.10;;
23590;SDS011;11973;52.098;7.582;2023-10-08T08:54:38;2.40;;;2.30;;
23590;SDS011;11973;52.098;7.582;2023-10-08T08:57:04;2.38;;;2.28;;
23590;SDS011;11973;52.098;7.582;2023-10-08T08:59:31;2.25;;;2.20;;
23590;SDS011;11973;52.098;7.582;2023-10-08T09:02:01;2.50;;;2.33;;
23590;SDS011;11973;52.098;7.582;2023-10-08T09:04:32;2.42;;;2.42;;
23590;SDS011;11973;52.098;7.582;2023-10-08T09:06:58;3.53;;;2.42;;
23590;SDS011;11973;52.098;7.582;2023-10-08T09:09:31;3.30;;;3.05;;
23590;SDS011;11973;52.098;7.582;2023-10-08T09:11:57;3.03;;;2.75;;
23590;SDS011;11973;52.098;7.582;2023-10-08T09:14:25;2.90;;;2.83;;
23590;SDS011;11973;52.098;7.582;2023-10-08T09:16:55;2.92;;;2.83;;
23590;SDS011;11973;52.098;7.582;2023-10-08T09:19:21;2.40;;;2.40;;
23590;SDS011;11973;52.098;7.582;2023-10-08T09:22:00;2.28;;;2.28;;
23590;SDS011;11973;52.098;7.582;2023-10-08T09:24:33;4.43;;;2.70;;
23590;SDS011;11973;52.098;7.582;2023-10-08T09:27:19;3.00;;;2.17;;
23590;SDS011;11973;52.098;7.582;2023-10-08T09:29:46;2.65;;;2.17;;
23590;SDS011;11973;52.098;7.582;2023-10-08T09:32:13;1.92;;;1.83;;
23590;SDS011;11973;52.098;7.582;2023-10-08T09:34:39;3.17;;;2.10;;
23590;SDS011;11973;52.098;7.582;2023-10-08T09:37:05;2.15;;;2.05;;
23590;SDS011;11973;52.098;7.582;2023-10-08T09:39:33;2.78;;;1.90;;
23590;SDS011;11973;52.098;7.582;2023-10-08T09:42:02;1.42;;;1.40;;
23590;SDS011;11973;52.098;7.582;2023-10-08T09:44:29;1.45;;;1.45;;
23590;SDS011;11973;52.098;7.582;2023-10-08T09:49:31;1.90;;;1.35;;
23590;SDS011;11973;52.098;7.582;2023-10-08T09:52:07;1.80;;;1.75;;
23590;SDS011;11973;52.098;7.582;2023-10-08T09:54:43;3.13;;;1.60;;
23590;SDS011;11973;52.098;7.582;2023-10-08T09:57:13;3.15;;;1.75;;
23590;SDS011;11973;52.098;7.582;2023-10-08T09:59:43;1.38;;;1.25;;
23590;SDS011;11973;52.098;7.582;2023-10-08T10:02:11;1.35;;;1.35;;
23590;SDS011;11973;52.098;7.582;2023-10-08T10:04:43;3.13;;;1.33;;
23590;SDS011;11973;52.098;7.582;2023-10-08T10:07:10;1.58;;;1.25;;
23590;SDS011;11973;52.098;7.582;2023-10-08T10:09:45;1.70;;;1.40;;
23590;SDS011;11973;52.098;7.582;2023-10-08T10:12:18;2.67;;;1.67;;
23590;SDS011;11973;52.098;7.582;2023-10-08T10:14:51;5.93;;;3.53;;
23590;SDS011;11973;52.098;7.582;2023-10-08T10:17:20;2.50;;;1.70;;
23590;SDS011;11973;52.098;7.582;2023-10-08T10:19:53;1.42;;;1.42;;
23590;SDS011;11973;52.098;7.582;2023-10-08T10:22:33;1.38;;;1.23;;
23590;SDS011;11973;52.098;7.582;2023-10-08T10:25:00;1.67;;;1.58;;
23590;SDS011;11973;52.098;7.582;2023-10-08T10:27:31;1.70;;;1.60;;
23590;SDS011;11973;52.098;7.582;2023-10-08T10:30:01;3.63;;;1.77;;
23590;SDS011;11973;52.098;7.582;2023-10-08T10:32:34;3.53;;;1.65;;
23590;SDS011;11973;52.098;7.582;2023-10-08T10:35:00;1.92;;;1.70;;
23590;SDS011;11973;52.098;7.582;2023-10-08T10:37:30;1.73;;;1.73;;
23590;SDS011;11973;52.098;7.582;2023-10-08T10:40:32;1.98;;;1.90;;
23590;SDS011;11973;52.098;7.582;2023-10-08T10:43:07;3.15;;;1.80;;
23590;SDS011;11973;52.098;7.582;2023-10-08T10:45:41;2.70;;;1.33;;
23590;SDS011;11973;52.098;7.582;2023-10-08T10:48:11;2.67;;;1.38;;
23590;SDS011;11973;52.098;7.582;2023-10-08T10:50:46;1.20;;;1.05;;
23590;SDS011;11973;52.098;7.582;2023-10-08T10:53:32;1.10;;;1.10;;
23590;SDS011;11973;52.098;7.582;2023-10-08T10:56:27;2.55;;;1.17;;
23590;SDS011;11973;52.098;7.582;2023-10-08T10:59:00;1.45;;;0.90;;
23590;SDS011;11973;52.098;7.582;2023-10-08T11:01:31;1.48;;;1.00;;
23590;SDS011;11973;52.098;7.582;2023-10-08T11:04:11;2.80;;;1.08;;
23590;SDS011;11973;52.098;7.582;2023-10-08T11:06:42;1.10;;;0.93;;
23590;SDS011;11973;52.098;7.582;2023-10-08T11:09:10;2.00;;;0.85;;
23590;SDS011;11973;52.098;7.582;2023-10-08T11:11:41;0.90;;;0.90;;
23590;SDS011;11973;52.098;7.582;2023-10-08T11:14:19;1.73;;;0.90;;
23590;SDS011;11973;52.098;7.582;2023-10-08T11:16:45;1.75;;;0.85;;
23590;SDS011;11973;52.098;7.582;2023-10-08T11:19:13;1.15;;;0.98;;
23590;SDS011;11973;52.098;7.582;2023-10-08T11:21:51;1.25;;;0.82;;
23590;SDS011;11973;52.098;7.582;2023-10-08T11:24:31;12.75;;;10.75;;
23590;SDS011;11973;52.098;7.582;2023-10-08T11:27:02;4.32;;;1.58;;
23590;SDS011;11973;52.098;7.582;2023-10-08T11:29:48;1.05;;;0.95;;
23590;SDS011;11973;52.098;7.582;2023-10-08T11:32:22;1.30;;;1.00;;
23590;SDS011;11973;52.098;7.582;2023-10-08T11:34:54;1.85;;;0.90;;
23590;SDS011;11973;52.098;7.582;2023-10-08T11:37:27;1.67;;;0.70;;
23590;SDS011;11973;52.098;7.582;2023-10-08T11:39:53;1.00;;;0.75;;
23590;SDS011;11973;52.098;7.582;2023-10-08T11:42:24;0.82;;;0.77;;
23590;SDS011;11973;52.098;7.582;2023-10-08T11:44:59;0.77;;;0.77;;
23590;SDS011;11973;52.098;7.582;2023-10-08T11:47:27;3.28;;;1.05;;
23590;SDS011;11973;52.098;7.582;2023-10-08T11:50:03;2.75;;;1.10;;
23590;SDS011;11973;52.098;7.582;2023-10-08T11:52:36;1.00;;;0.93;;
23590;SDS011;11973;52.098;7.582;2023-10-08T11:55:09;0.77;;;0.68;;
23590;SDS011;11973;52.098;7.582;2023-10-08T11:57:35;0.63;;;0.60;;
23590;SDS011;11973;52.098;7.582;2023-10-08T12:00:07;0.70;;;0.70;;
23590;SDS011;11973;52.098;7.582;2023-10-08T12:02:45;3.42;;;1.00;;
23590;SDS011;11973;52.098;7.582;2023-10-08T12:05:11;2.88;;;0.80;;
23590;SDS011;11973;52.098;7.582;2023-10-08T12:07:48;0.80;;;0.80;;
23590;SDS011;11973;52.098;7.582;2023-10-08T12:10:19;1.75;;;0.88;;
23590;SDS011;11973;52.098;7.582;2023-10-08T12:12:49;1.85;;;0.90;;
23590;SDS011;11973;52.098;7.582;2023-10-08T12:15:17;0.93;;;0.90;;
23590;SDS011;11973;52.098;7.582;2023-10-08T12:17:50;1.00;;;0.93;;
23590;SDS011;11973;52.098;7.582;2023-10-08T12:20:40;0.70;;;0.70;;
23590;SDS011;11973;52.098;7.582;2023-10-08T12:23:10;0.60;;;0.60;;
23590;SDS011;11973;52.098;7.582;2023-10-08T12:25:44;1.00;;;0.90;;
23590;SDS011;11973;52.098;7.582;2023-10-08T12:28:16;2.28;;;0.80;;
23590;SDS011;11973;52.098;7.582;2023-10-08T12:30:44;0.80;;;0.60;;
23590;SDS011;11973;52.098;7.582;2023-10-08T12:33:10;1.02;;;1.00;;
23590;SDS011;11973;52.098;7.582;2023-10-08T12:35:43;1.48;;;0.80;;
23590;SDS011;11973;52.098;7.582;2023-10-08T12:38:09;1.08;;;0.90;;
23590;SDS011;11973;52.098;7.582;2023-10-08T12:40:35;1.67;;;0.95;;
23590;SDS011;11973;52.098;7.582;2023-10-08T12:43:16;3.13;;;0.80;;
23590;SDS011;11973;52.098;7.582;2023-10-08T12:45:45;0.63;;;0.63;;
23590;SDS011;11973;52.098;7.582;2023-10-08T12:48:20;1.05;;;0.88;;
23590;SDS011;11973;52.098;7.582;2023-10-08T12:50:51;1.02;;;1.00;;
23590;SDS011;11973;52.098;7.582;2023-10-08T12:53:24;2.05;;;0.80;;
23590;SDS011;11973;52.098;7.582;2023-10-08T12:56:08;1.27;;;0.80;;
23590;SDS011;11973;52.098;7.582;2023-10-08T12:58:42;1.67;;;0.77;;
23590;SDS011;11973;52.098;7.582;2023-10-08T13:01:14;1.27;;;0.90;;
23590;SDS011;11973;52.098;7.582;2023-10-08T13:03:43;1.00;;;1.00;;
23590;SDS011;11973;52.098;7.582;2023-10-08T13:06:21;2.10;;;0.95;;
23590;SDS011;11973;52.098;7.582;2023-10-08T13:08:50;2.38;;;1.30;;
23590;SDS011;11973;52.098;7.582;2023-10-08T13:11:21;0.68;;;0.60;;
23590;SDS011;11973;52.098;7.582;2023-10-08T13:13:57;1.13;;;0.80;;
23590;SDS011;11973;52.098;7.582;2023-10-08T13:16:24;0.68;;;0.68;;
23590;SDS011;11973;52.098;7.582;2023-10-08T13:18:50;1.00;;;0.90;;
23590;SDS011;11973;52.098;7.582;2023-10-08T13:21:17;0.88;;;0.88;;
23590;SDS011;11973;52.098;7.582;2023-10-08T13:23:49;0.80;;;0.77;;
23590;SDS011;11973;52.098;7.582;2023-10-08T13:26:15;0.80;;;0.80;;
23590;SDS011;11973;52.098;7.582;2023-10-08T13:28:42;0.70;;;0.65;;
23590;SDS011;11973;52.098;7.582;2023-10-08T13:31:10;1.08;;;0.65;;
23590;SDS011;11973;52.098;7.582;2023-10-08T13:33:40;0.60;;;0.60;;
23590;SDS011;11973;52.098;7.582;2023-10-08T13:36:11;0.60;;;0.60;;
23590;SDS011;11973;52.098;7.582;2023-10-08T13:38:39;1.77;;;0.80;;
23590;SDS011;11973;52.098;7.582;2023-10-08T13:41:09;1.05;;;0.82;;
23590;SDS011;11973;52.098;7.582;2023-10-08T13:43:49;1.33;;;0.70;;
23590;SDS011;11973;52.098;7.582;2023-10-08T13:46:27;1.30;;;0.50;;
23590;SDS011;11973;52.098;7.582;2023-10-08T13:48:52;0.60;;;0.50;;
23590;SDS011;11973;52.098;7.582;2023-10-08T13:51:20;1.67;;;0.70;;
23590;SDS011;11973;52.098;7.582;2023-10-08T13:53:51;2.35;;;0.85;;
23590;SDS011;11973;52.098;7.582;2023-10-08T13:56:18;0.93;;;0.85;;
23590;SDS011;11973;52.098;7.582;2023-10-08T13:58:52;2.20;;;0.60;;
23590;SDS011;11973;52.098;7.582;2023-10-08T14:01:29;1.55;;;0.80;;
23590;SDS011;11973;52.098;7.582;2023-10-08T14:04:03;0.80;;;0.60;;
23590;SDS011;11973;52.098;7.582;2023-10-08T14:06:30;0.43;;;0.43;;
23590;SDS011;11973;52.098;7.582;2023-10-08T14:08:57;0.90;;;0.90;;
23590;SDS011;11973;52.098;7.582;2023-10-08T14:11:22;2.10;;;0.90;;
23590;SDS011;11973;52.098;7.582;2023-10-08T14:13:58;1.25;;;0.70;;
23590;SDS011;11973;52.098;7.582;2023-10-08T14:16:27;0.73;;;0.50;;
23590;SDS011;11973;52.098;7.582;2023-10-08T14:18:54;0.50;;;0.50;;
23590;SDS011;11973;52.098;7.582;2023-10-08T14:21:24;0.70;;;0.60;;
23590;SDS011;11973;52.098;7.582;2023-10-08T14:23:56;0.70;;;0.70;;
23590;SDS011;11973;52.098;7.582;2023-10-08T14:26:28;0.50;;;0.50;;
23590;SDS011;11973;52.098;7.582;2023-10-08T14:29:01;0.90;;;0.90;;
23590;SDS011;11973;52.098;7.582;2023-10-08T14:31:40;0.88;;;0.80;;
23590;SDS011;11973;52.098;7.582;2023-10-08T14:34:08;1.15;;;1.15;;
23590;SDS011;11973;52.098;7.582;2023-10-08T14:36:54;0.82;;;0.82;;
23590;SDS011;11973;52.098;7.582;2023-10-08T14:39:39;0.80;;;0.80;;
23590;SDS011;11973;52.098;7.582;2023-10-08T14:42:23;1.88;;;1.52;;
23590;SDS011;11973;52.098;7.582;2023-10-08T14:45:07;2.78;;;2.60;;
23590;SDS011;11973;52.098;7.582;2023-10-08T14:47:38;1.65;;;0.93;;
23590;SDS011;11973;52.098;7.582;2023-10-08T14:50:04;0.70;;;0.70;;
23590;SDS011;11973;52.098;7.582;2023-10-08T14:52:30;0.70;;;0.68;;
23590;SDS011;11973;52.098;7.582;2023-10-08T14:54:58;1.33;;;1.33;;
23590;SDS011;11973;52.098;7.582;2023-10-08T14:57:24;0.50;;;0.50;;
23590;SDS011;11973;52.098;7.582;2023-10-08T14:59:51;0.88;;;0.88;;
23590;SDS011;11973;52.098;7.582;2023-10-08T15:02:18;0.60;;;0.60;;
23590;SDS011;11973;52.098;7.582;2023-10-08T15:04:44;0.50;;;0.50;;
23590;SDS011;11973;52.098;7.582;2023-10-08T15:07:10;2.83;;;0.70;;
23590;SDS011;11973;52.098;7.582;2023-10-08T15:09:36;0.85;;;0.75;;
23590;SDS011;11973;52.098;7.582;2023-10-08T15:12:04;1.02;;;0.90;;
23590;SDS011;11973;52.098;7.582;2023-10-08T15:14:33;3.53;;;0.80;;
23590;SDS011;11973;52.098;7.582;2023-10-08T15:17:00;1.67;;;0.80;;
23590;SDS011;11973;52.098;7.582;2023-10-08T15:19:26;0.40;;;0.40;;
23590;SDS011;11973;52.098;7.582;2023-10-08T15:21:52;0.60;;;0.60;;
23590;SDS011;11973;52.098;7.582;2023-10-08T15:24:18;0.90;;;0.70;;
23590;SDS011;11973;52.098;7.582;2023-10-08T15:26:47;1.88;;;0.80;;
23590;SDS011;11973;52.098;7.582;2023-10-08T15:29:14;0.80;;;0.80;;
23590;SDS011;11973;52.098;7.582;2023-10-08T15:31:40;1.02;;;1.00;;
23590;SDS011;11973;52.098;7.582;2023-10-08T15:34:06;0.90;;;0.90;;
23590;SDS011;11973;52.098;7.582;2023-10-08T15:36:32;0.90;;;0.90;;
23590;SDS011;11973;52.098;7.582;2023-10-08T15:38:58;0.70;;;0.70;;
23590;SDS011;11973;52.098;7.582;2023-10-08T15:41:24;1.65;;;0.90;;
23590;SDS011;11973;52.098;7.582;2023-10-08T15:43:50;1.10;;;0.70;;
23590;SDS011;11973;52.098;7.582;2023-10-08T15:46:20;3.13;;;1.00;;
23590;SDS011;11973;52.098;7.582;2023-10-08T15:48:45;2.95;;;0.70;;
23590;SDS011;11973;52.098;7.582;2023-10-08T15:51:12;2.20;;;2.10;;
23590;SDS011;11973;52.098;7.582;2023-10-08T15:53:40;1.58;;;1.50;;
23590;SDS011;11973;52.098;7.582;2023-10-08T15:56:05;0.90;;;0.90;;
23590;SDS011;11973;52.098;7.582;2023-10-08T15:58:31;1.08;;;1.08;;
23590;SDS011;11973;52.098;7.582;2023-10-08T16:00:56;1.63;;;1.60;;
23590;SDS011;11973;52.098;7.582;2023-10-08T16:03:22;1.85;;;0.90;;
23590;SDS011;11973;52.098;7.582;2023-10-08T16:05:48;1.25;;;0.90;;
23590;SDS011;11973;52.098;7.582;2023-10-08T16:08:14;2.15;;;1.10;;
23590;SDS011;11973;52.098;7.582;2023-10-08T16:10:40;2.05;;;1.08;;
23590;SDS011;11973;52.098;7.582;2023-10-08T16:13:06;2.25;;;1.25;;
23590;SDS011;11973;52.098;7.582;2023-10-08T16:15:34;1.30;;;1.20;;
23590;SDS011;11973;52.098;7.582;2023-10-08T16:18:00;2.10;;;1.85;;
23590;SDS011;11973;52.098;7.582;2023-10-08T16:20:28;1.40;;;1.40;;
23590;SDS011;11973;52.098;7.582;2023-10-08T16:22:56;1.10;;;1.10;;
23590;SDS011;11973;52.098;7.582;2023-10-08T16:25:21;5.22;;;1.42;;
23590;SDS011;11973;52.098;7.582;2023-10-08T16:27:49;2.10;;;2.00;;
23590;SDS011;11973;52.098;7.582;2023-10-08T16:30:21;2.50;;;2.40;;
23590;SDS011;11973;52.098;7.582;2023-10-08T16:32:49;3.80;;;2.33;;
23590;SDS011;11973;52.098;7.582;2023-10-08T16:35:16;2.80;;;1.83;;
23590;SDS011;11973;52.098;7.582;2023-10-08T16:37:41;1.92;;;1.85;;
23590;SDS011;11973;52.098;7.582;2023-10-08T16:40:10;2.00;;;1.90;;
23590;SDS011;11973;52.098;7.582;2023-10-08T16:42:36;5.05;;;2.10;;
23590;SDS011;11973;52.098;7.582;2023-10-08T16:45:03;3.17;;;1.60;;
23590;SDS011;11973;52.098;7.582;2023-10-08T16:47:32;2.70;;;1.73;;
23590;SDS011;11973;52.098;7.582;2023-10-08T16:49:58;2.40;;;1.38;;
23590;SDS011;11973;52.098;7.582;2023-10-08T16:52:26;2.20;;;2.10;;
23590;SDS011;11973;52.098;7.582;2023-10-08T16:54:52;4.28;;;2.20;;
23590;SDS011;11973;52.098;7.582;2023-10-08T16:57:21;3.03;;;2.80;;
23590;SDS011;11973;52.098;7.582;2023-10-08T16:59:50;3.88;;;3.45;;
23590;SDS011;11973;52.098;7.582;2023-10-08T17:02:16;2.72;;;2.45;;
23590;SDS011;11973;52.098;7.582;2023-10-08T17:04:42;1.80;;;1.70;;
23590;SDS011;11973;52.098;7.582;2023-10-08T17:07:08;3.40;;;3.10;;
23590;SDS011;11973;52.098;7.582;2023-10-08T17:09:35;3.35;;;3.15;;
23590;SDS011;11973;52.098;7.582;2023-10-08T17:12:01;5.07;;;2.88;;
23590;SDS011;11973;52.098;7.582;2023-10-08T17:14:28;2.20;;;2.10;;
23590;SDS011;11973;52.098;7.582;2023-10-08T17:16:53;2.15;;;2.05;;
23590;SDS011;11973;52.098;7.582;2023-10-08T17:19:19;5.80;;;2.10;;
23590;SDS011;11973;52.098;7.582;2023-10-08T17:21:49;1.88;;;1.77;;
23590;SDS011;11973;52.098;7.582;2023-10-08T17:24:18;1.30;;;1.20;;
23590;SDS011;11973;52.098;7.582;2023-10-08T17:26:44;4.65;;;1.30;;
23590;SDS011;11973;52.098;7.582;2023-10-08T17:29:09;1.38;;;1.27;;
23590;SDS011;11973;52.098;7.582;2023-10-08T17:31:35;1.45;;;1.45;;
23590;SDS011;11973;52.098;7.582;2023-10-08T17:34:04;1.38;;;1.27;;
23590;SDS011;11973;52.098;7.582;2023-10-08T17:36:30;2.95;;;1.40;;
23590;SDS011;11973;52.098;7.582;2023-10-08T17:39:00;1.50;;;1.50;;
23590;SDS011;11973;52.098;7.582;2023-10-08T17:41:34;1.13;;;1.13;;
23590;SDS011;11973;52.098;7.582;2023-10-08T17:44:00;3.10;;;1.50;;
23590;SDS011;11973;52.098;7.582;2023-10-08T17:46:26;1.67;;;1.58;;
23590;SDS011;11973;52.098;7.582;2023-10-08T17:48:53;1.40;;;1.30;;
23590;SDS011;11973;52.098;7.582;2023-10-08T17:51:19;1.58;;;1.58;;
23590;SDS011;11973;52.098;7.582;2023-10-08T17:53:45;2.38;;;1.40;;
23590;SDS011;11973;52.098;7.582;2023-10-08T17:56:12;1.30;;;1.30;;
23590;SDS011;11973;52.098;7.582;2023-10-08T17:58:38;1.33;;;1.27;;
23590;SDS011;11973;52.098;7.582;2023-10-08T18:01:08;1.67;;;1.40;;
23590;SDS011;11973;52.098;7.582;2023-10-08T18:03:42;1.38;;;1.30;;
23590;SDS011;11973;52.098;7.582;2023-10-08T18:06:16;1.23;;;1.13;;
23590;SDS011;11973;52.098;7.582;2023-10-08T18:08:46;1.30;;;1.30;;
23590;SDS011;11973;52.098;7.582;2023-10-08T18:11:17;1.65;;;1.30;;
23590;SDS011;11973;52.098;7.582;2023-10-08T18:13:44;1.60;;;1.30;;
23590;SDS011;11973;52.098;7.582;2023-10-08T18:16:15;2.45;;;1.02;;
23590;SDS011;11973;52.098;7.582;2023-10-08T18:18:43;1.63;;;1.48;;
23590;SDS011;11973;52.098;7.582;2023-10-08T18:21:10;1.45;;;1.33;;
23590;SDS011;11973;52.098;7.582;2023-10-08T18:23:43;2.30;;;1.20;;
23590;SDS011;11973;52.098;7.582;2023-10-08T18:26:12;1.45;;;1.30;;
23590;SDS011;11973;52.098;7.582;2023-10-08T18:28:38;1.52;;;1.45;;
23590;SDS011;11973;52.098;7.582;2023-10-08T18:31:08;1.33;;;1.23;;
23590;SDS011;11973;52.098;7.582;2023-10-08T18:33:36;1.33;;;1.33;;
23590;SDS011;11973;52.098;7.582;2023-10-08T18:36:04;2.28;;;1.50;;
23590;SDS011;11973;52.098;7.582;2023-10-08T18:38:35;1.63;;;1.00;;
23590;SDS011;11973;52.098;7.582;2023-10-08T18:41:01;1.90;;;1.80;;
23590;SDS011;11973;52.098;7.582;2023-10-08T18:43:28;1.95;;;1.90;;
23590;SDS011;11973;52.098;7.582;2023-10-08T18:45:54;2.13;;;1.80;;
23590;SDS011;11973;52.098;7.582;2023-10-08T18:48:21;1.60;;;1.15;;
23590;SDS011;11973;52.098;7.582;2023-10-08T18:50:47;1.48;;;0.80;;
23590;SDS011;11973;52.098;7.582;2023-10-08T18:53:12;2.63;;;0.80;;
23590;SDS011;11973;52.098;7.582;2023-10-08T18:55:38;1.13;;;0.82;;
23590;SDS011;11973;52.098;7.582;2023-10-08T18:58:04;1.20;;;0.77;;
23590;SDS011;11973;52.098;7.582;2023-10-08T19:00:30;1.42;;;0.80;;
23590;SDS011;11973;52.098;7.582;2023-10-08T19:02:58;0.80;;;0.80;;
23590;SDS011;11973;52.098;7.582;2023-10-08T19:05:23;1.05;;;1.05;;
23590;SDS011;11973;52.098;7.582;2023-10-08T19:07:50;1.75;;;1.38;;
23590;SDS011;11973;52.098;7.582;2023-10-08T19:10:19;1.60;;;1.02;;
23590;SDS011;11973;52.098;7.582;2023-10-08T19:12:45;0.90;;;0.90;;
23590;SDS011;11973;52.098;7.582;2023-10-08T19:15:11;1.85;;;1.10;;
23590;SDS011;11973;52.098;7.582;2023-10-08T19:17:42;1.13;;;1.13;;
23590;SDS011;11973;52.098;7.582;2023-10-08T19:20:09;1.13;;;1.02;;
23590;SDS011;11973;52.098;7.582;2023-10-08T19:22:37;4.35;;;1.52;;
23590;SDS011;11973;52.098;7.582;2023-10-08T19:25:04;2.97;;;1.40;;
23590;SDS011;11973;52.098;7.582;2023-10-08T19:27:32;4.05;;;1.65;;
23590;SDS011;11973;52.098;7.582;2023-10-08T19:29:58;1.88;;;1.77;;
23590;SDS011;11973;52.098;7.582;2023-10-08T19:32:31;1.95;;;1.85;;
23590;SDS011;11973;52.098;7.582;2023-10-08T19:34:57;3.85;;;1.88;;
23590;SDS011;11973;52.098;7.582;2023-10-08T19:37:23;2.08;;;1.85;;
23590;SDS011;11973;52.098;7.582;2023-10-08T19:39:49;2.55;;;2.40;;
23590;SDS011;11973;52.098;7.582;2023-10-08T19:42:15;1.85;;;1.75;;
23590;SDS011;11973;52.098;7.582;2023-10-08T19:44:41;2.42;;;1.60;;